Аэропорт: Елизово. Петропавловск-Камчатский

ICAO: UHPP

METAR:
2022-06-26 10:00:00
UHPP 261000Z 19002MPS 160V220 7000 -SHRA BKN004 OVC019CB 11/11 Q1006 R16R/290155 NOSIG RMK MT OBSC QFE752/1002
METAR:
2022-06-26 07:33:00
TAF UHPP 260733Z 2609/2715 17003G12MPS 9999 BKN011 OVC020CB TEMPO 2609/2623 0700 -SHRA FG VV002